Time;durP1;ratioP1;P1;durP2;ratioP2;P2;SDS_P1;SDS_P2;PMS_P1;PMS_P2;Temp;Humidity;BMP_temperature;BMP_pressure;BME280_temperature;BME280_humidity;BME280_pressure;Samples;Min_cycle;Max_cycle;Signal;HPM_P1;HPM_P2
2021/09/18 00:05:32;;;;;;;;;12.33;12.33;22.80;52.10;;;;;;5125332;27;13386;-66
2021/09/18 00:07:58;;;;;;;;;11.00;11.00;22.90;52.40;;;;;;5112657;28;8785;-66
2021/09/18 00:10:25;;;;;;;;;11.67;11.67;22.90;52.40;;;;;;5113354;27;8867;-64
2021/09/18 00:12:50;;;;;;;;;17.67;17.67;23.00;52.10;;;;;;5128728;27;8864;-65
2021/09/18 00:15:16;;;;;;;;;12.33;12.33;23.10;51.70;;;;;;5130619;27;8779;-66
2021/09/18 00:17:42;;;;;;;;;13.67;13.67;23.10;51.80;;;;;;5121902;28;8782;-64
2021/09/18 00:20:08;;;;;;;;;10.00;10.00;23.10;51.80;;;;;;5109739;28;8807;-66
2021/09/18 00:22:34;;;;;;;;;13.00;13.00;23.20;51.30;;;;;;5107899;28;8769;-65
2021/09/18 00:25:00;;;;;;;;;10.00;10.00;23.30;51.00;;;;;;5109615;28;9437;-65
2021/09/18 00:27:26;;;;;;;;;13.00;13.00;23.30;50.60;;;;;;5109677;28;8742;-65
2021/09/18 00:29:51;;;;;;;;;11.67;11.67;23.30;50.40;;;;;;5109459;28;8766;-66
2021/09/18 00:32:17;;;;;;;;;11.67;11.67;23.40;50.40;;;;;;5129582;27;8811;-65
2021/09/18 00:34:43;;;;;;;;;11.00;11.00;23.30;50.70;;;;;;5129884;27;9421;-65
2021/09/18 00:37:08;;;;;;;;;11.67;11.67;23.20;50.10;;;;;;5066515;28;8797;-65
2021/09/18 00:39:34;;;;;;;;;9.00;9.00;23.30;50.50;;;;;;5051134;28;8766;-65
2021/09/18 00:42:00;;;;;;;;;16.33;16.33;23.30;50.30;;;;;;5049364;28;8801;-66
2021/09/18 00:44:28;;;;;;;;;17.00;17.00;23.20;50.50;;;;;;5049546;28;9446;-67
2021/09/18 00:46:54;;;;;;;;;11.00;11.00;23.10;50.80;;;;;;5050971;28;9455;-67
2021/09/18 00:49:20;;;;;;;;;12.00;12.00;23.20;50.30;;;;;;5050739;28;8777;-66
2021/09/18 00:51:47;;;;;;;;;11.00;11.00;23.10;50.60;;;;;;5050790;28;8829;-67
2021/09/18 00:54:14;;;;;;;;;10.67;10.67;23.10;50.10;;;;;;5048793;28;8796;-66
2021/09/18 00:56:42;;;;;;;;;12.00;12.00;23.00;49.70;;;;;;5050619;28;8801;-67
2021/09/18 00:59:08;;;;;;;;;9.67;9.67;22.90;49.90;;;;;;5050736;28;8789;-67
2021/09/18 01:01:34;;;;;;;;;9.33;9.33;23.00;50.10;;;;;;5050494;28;8777;-66
2021/09/18 01:04:01;;;;;;;;;8.00;8.00;23.00;49.90;;;;;;5046529;28;8927;-68
2021/09/18 01:06:30;;;;;;;;;11.33;11.33;23.00;49.70;;;;;;5057096;28;8759;-67
2021/09/18 01:09:00;;;;;;;;;11.33;11.33;23.10;49.70;;;;;;5056974;28;8774;-69
2021/09/18 01:11:26;;;;;;;;;9.33;9.33;23.00;49.50;;;;;;5057477;28;8799;-67
2021/09/18 01:13:52;;;;;;;;;9.00;9.00;23.10;50.40;;;;;;5057122;28;8759;-68
2021/09/18 01:16:21;;;;;;;;;13.33;13.33;23.10;49.20;;;;;;5053901;28;8809;-68
2021/09/18 01:18:47;;;;;;;;;10.00;10.00;23.20;48.80;;;;;;5055710;28;8767;-68
2021/09/18 01:21:14;;;;;;;;;11.00;11.00;23.20;49.00;;;;;;5056815;28;8935;-67
2021/09/18 01:23:40;;;;;;;;;9.33;9.33;23.20;48.70;;;;;;5054714;28;8783;-67
2021/09/18 01:26:08;;;;;;;;;6.00;6.00;23.20;48.80;;;;;;5056718;28;8794;-67
2021/09/18 01:28:34;;;;;;;;;10.33;10.33;23.20;48.80;;;;;;5056615;28;8755;-67
2021/09/18 01:31:00;;;;;;;;;9.00;9.00;23.20;48.80;;;;;;5056515;28;8775;-68
2021/09/18 01:33:26;;;;;;;;;8.67;8.67;23.20;48.70;;;;;;5056441;28;11475;-68
2021/09/18 01:35:52;;;;;;;;;10.33;10.33;23.10;48.80;;;;;;5056820;28;8787;-68
2021/09/18 01:38:17;;;;;;;;;8.00;8.00;23.20;48.90;;;;;;5056746;28;8774;-70
2021/09/18 01:40:46;;;;;;;;;10.00;10.00;23.20;48.70;;;;;;5056396;28;9373;-68
2021/09/18 01:43:12;;;;;;;;;9.00;9.00;23.20;48.60;;;;;;5056398;28;8782;-67
2021/09/18 01:45:38;;;;;;;;;9.33;9.33;23.10;48.60;;;;;;5056659;28;8783;-69
2021/09/18 01:48:07;;;;;;;;;8.67;8.67;23.20;48.70;;;;;;5054770;28;8868;-67
2021/09/18 01:53:13;;;;;;;;;9.00;9.00;23.10;48.50;;;;;;5037355;28;8913;-68
2021/09/18 01:55:40;;;;;;;;;7.00;7.00;23.00;49.20;;;;;;5056266;28;8878;-68
2021/09/18 01:58:06;;;;;;;;;6.67;6.67;22.90;49.10;;;;;;5056180;28;8806;-68
2021/09/18 02:00:35;;;;;;;;;10.00;10.00;23.00;49.20;;;;;;5055998;28;11521;-68
2021/09/18 02:03:01;;;;;;;;;11.00;11.00;23.10;49.10;;;;;;5055741;28;11507;-68
2021/09/18 02:05:27;;;;;;;;;8.67;8.67;23.10;49.10;;;;;;5054177;28;8951;-67
2021/09/18 02:07:54;;;;;;;;;8.00;8.00;23.10;49.00;;;;;;5056153;28;9420;-68
2021/09/18 02:10:24;;;;;;;;;9.00;9.00;23.10;48.80;;;;;;5055855;28;8935;-68
2021/09/18 02:12:51;;;;;;;;;10.00;10.00;23.10;49.10;;;;;;5055825;28;8832;-69
2021/09/18 02:15:18;;;;;;;;;10.00;10.00;23.10;49.10;;;;;;5055052;28;8775;-68
2021/09/18 02:17:44;;;;;;;;;8.33;8.33;23.10;49.10;;;;;;5055768;28;8852;-67
2021/09/18 02:20:13;;;;;;;;;9.00;9.00;23.10;49.30;;;;;;5055749;28;8783;-67
2021/09/18 02:22:40;;;;;;;;;10.33;10.33;23.10;48.70;;;;;;5053477;28;11455;-67
2021/09/18 02:25:07;;;;;;;;;10.00;10.00;23.10;48.70;;;;;;5055895;28;8806;-68
2021/09/18 02:27:33;;;;;;;;;6.00;6.00;23.00;49.10;;;;;;5055640;28;8747;-67
2021/09/18 02:29:59;;;;;;;;;9.00;9.00;23.00;49.00;;;;;;5054253;28;11427;-68
2021/09/18 02:32:25;;;;;;;;;2.00;2.00;22.90;49.00;;;;;;5052258;28;8829;-67
2021/09/18 02:34:51;;;;;;;;;8.67;8.67;22.80;49.10;;;;;;5055665;28;11466;-67
2021/09/18 02:37:17;;;;;;;;;11.00;11.00;22.90;49.40;;;;;;5055363;28;8900;-67
2021/09/18 02:39:42;;;;;;;;;8.67;8.67;22.90;50.30;;;;;;5055410;28;8774;-67
2021/09/18 02:42:08;;;;;;;;;11.00;11.00;22.90;49.40;;;;;;5055250;28;8774;-68
2021/09/18 02:44:35;;;;;;;;;8.00;8.00;23.00;49.10;;;;;;5055180;28;8767;-68
2021/09/18 02:47:01;;;;;;;;;9.67;9.67;22.80;49.20;;;;;;5055437;28;8751;-68
2021/09/18 02:49:26;;;;;;;;;8.67;8.67;22.60;49.60;;;;;;5055674;28;8802;-68
2021/09/18 02:51:52;;;;;;;;;7.33;7.33;22.50;50.00;;;;;;5052659;28;8912;-68
2021/09/18 02:54:18;;;;;;;;;9.33;9.33;22.70;50.30;;;;;;5055261;28;8850;-67
2021/09/18 02:56:44;;;;;;;;;9.00;9.00;22.60;50.10;;;;;;5055280;28;8821;-69
2021/09/18 02:59:10;;;;;;;;;7.33;7.33;22.70;50.30;;;;;;5054857;28;8754;-68
2021/09/18 03:01:36;;;;;;;;;9.67;9.67;22.50;50.10;;;;;;5053754;28;8775;-66
2021/09/18 03:04:03;;;;;;;;;7.33;7.33;22.50;50.70;;;;;;5053629;28;8826;-68
2021/09/18 03:06:29;;;;;;;;;11.33;11.33;22.60;50.50;;;;;;5055098;28;9448;-69
2021/09/18 03:08:57;;;;;;;;;8.33;8.33;22.60;50.60;;;;;;5054769;28;8823;-67
2021/09/18 03:11:23;;;;;;;;;10.00;10.00;22.50;50.70;;;;;;5054698;28;8810;-67
2021/09/18 03:13:49;;;;;;;;;9.33;9.33;22.50;51.00;;;;;;5054674;28;8755;-68
2021/09/18 03:16:15;;;;;;;;;10.00;10.00;22.50;50.90;;;;;;5054627;28;8767;-68
2021/09/18 03:18:41;;;;;;;;;11.00;11.00;22.60;50.80;;;;;;5051459;28;11628;-68
2021/09/18 03:21:07;;;;;;;;;9.67;9.67;22.50;50.80;;;;;;5052974;28;9470;-67
2021/09/18 03:23:33;;;;;;;;;9.67;9.67;22.50;51.00;;;;;;5053411;28;8820;-68
2021/09/18 03:25:59;;;;;;;;;11.00;11.00;22.40;51.30;;;;;;5054241;28;8759;-68
2021/09/18 03:28:25;;;;;;;;;10.33;10.33;22.20;51.70;;;;;;5054659;28;8778;-68
2021/09/18 03:30:50;;;;;;;;;13.00;13.00;22.20;52.00;;;;;;5054541;28;8805;-66
2021/09/18 03:33:16;;;;;;;;;10.00;10.00;22.20;51.80;;;;;;5054245;28;8819;-67
2021/09/18 03:35:42;;;;;;;;;8.00;8.00;22.20;51.90;;;;;;5054351;28;8856;-69
2021/09/18 03:38:11;;;;;;;;;8.67;8.67;22.10;52.00;;;;;;5054385;28;8777;-68
2021/09/18 03:40:37;;;;;;;;;11.33;11.33;22.10;52.30;;;;;;5054311;28;8885;-69
2021/09/18 03:43:03;;;;;;;;;10.00;10.00;22.10;52.20;;;;;;5054353;28;8802;-66
2021/09/18 03:45:29;;;;;;;;;11.67;11.67;22.20;52.10;;;;;;5054305;28;8802;-65
2021/09/18 03:47:55;;;;;;;;;10.00;10.00;22.20;52.20;;;;;;5054219;28;8786;-66
2021/09/18 03:50:20;;;;;;;;;13.00;13.00;22.10;52.50;;;;;;5054512;28;8775;-68
2021/09/18 03:52:46;;;;;;;;;11.67;11.67;22.10;52.50;;;;;;5051420;28;9759;-66
2021/09/18 03:55:12;;;;;;;;;10.67;10.67;22.00;52.60;;;;;;5054156;28;8813;-68
2021/09/18 03:57:38;;;;;;;;;12.33;12.33;22.10;52.50;;;;;;5054391;28;8778;-66
2021/09/18 04:00:06;;;;;;;;;11.67;11.67;22.10;52.40;;;;;;5054165;28;8767;-67
2021/09/18 04:02:31;;;;;;;;;11.00;11.00;22.00;52.50;;;;;;5054063;28;9431;-67
2021/09/18 04:04:57;;;;;;;;;10.00;10.00;22.10;52.40;;;;;;5053899;28;8911;-67
2021/09/18 04:07:23;;;;;;;;;9.33;9.33;22.00;52.60;;;;;;5054110;28;8781;-68
2021/09/18 04:09:49;;;;;;;;;12.33;12.33;22.10;52.80;;;;;;5053995;28;8913;-68
2021/09/18 04:12:15;;;;;;;;;13.00;13.00;21.90;52.60;;;;;;5053956;28;8833;-67
2021/09/18 04:14:41;;;;;;;;;11.33;11.33;22.00;52.70;;;;;;5054217;28;8867;-67
2021/09/18 04:17:07;;;;;;;;;13.00;13.00;21.90;53.10;;;;;;5053955;28;8767;-68
2021/09/18 04:19:33;;;;;;;;;14.67;14.67;22.00;53.00;;;;;;5053995;28;8771;-67
2021/09/18 04:21:58;;;;;;;;;10.67;10.67;22.00;52.80;;;;;;5051053;28;8915;-68
2021/09/18 04:24:24;;;;;;;;;12.00;12.00;22.10;52.80;;;;;;5050894;28;8803;-68
2021/09/18 04:26:50;;;;;;;;;10.33;10.33;22.20;52.60;;;;;;5053877;28;8795;-67
2021/09/18 04:29:15;;;;;;;;;10.67;10.67;22.20;52.20;;;;;;5052876;28;8782;-68
2021/09/18 04:31:42;;;;;;;;;12.00;12.00;22.20;52.20;;;;;;5052964;28;9436;-67
2021/09/18 04:34:08;;;;;;;;;10.00;10.00;22.20;52.20;;;;;;5054038;28;8787;-67
2021/09/18 04:36:34;;;;;;;;;10.33;10.33;22.20;52.30;;;;;;5053891;28;8790;-68
2021/09/18 04:39:00;;;;;;;;;12.00;12.00;22.30;52.00;;;;;;5050717;28;8802;-67
2021/09/18 04:41:26;;;;;;;;;11.33;11.33;22.30;51.80;;;;;;5048685;28;8767;-67
2021/09/18 04:43:53;;;;;;;;;12.00;12.00;22.40;52.10;;;;;;5042274;28;8785;-68
2021/09/18 04:46:19;;;;;;;;;10.33;10.33;22.30;51.80;;;;;;5045099;28;8789;-67
2021/09/18 04:48:45;;;;;;;;;11.00;11.00;22.20;52.30;;;;;;5038219;28;8904;-67
2021/09/18 04:51:11;;;;;;;;;11.00;11.00;22.10;52.50;;;;;;5055358;28;8789;-67
2021/09/18 04:53:37;;;;;;;;;9.33;9.33;22.20;52.50;;;;;;5057571;28;8873;-68
2021/09/18 04:56:03;;;;;;;;;12.00;12.00;22.10;52.50;;;;;;5057343;28;9413;-67
2021/09/18 04:58:30;;;;;;;;;12.33;12.33;22.20;52.30;;;;;;5054921;28;8894;-67
2021/09/18 05:00:56;;;;;;;;;15.00;15.00;22.00;52.80;;;;;;5057201;28;8845;-67
2021/09/18 05:03:22;;;;;;;;;11.33;11.33;22.10;52.80;;;;;;5055405;28;8798;-67
2021/09/18 05:05:48;;;;;;;;;12.33;12.33;22.10;52.80;;;;;;5054429;28;8811;-68
2021/09/18 05:08:15;;;;;;;;;8.00;8.00;22.00;52.70;;;;;;5057345;28;8778;-67
2021/09/18 05:10:41;;;;;;;;;14.00;14.00;22.10;52.80;;;;;;5054208;28;8774;-67
2021/09/18 05:13:06;;;;;;;;;15.33;15.33;22.10;52.60;;;;;;5056880;28;8954;-67
2021/09/18 05:15:32;;;;;;;;;11.67;11.67;22.20;52.50;;;;;;5056838;28;8763;-68
2021/09/18 05:17:58;;;;;;;;;13.00;13.00;22.30;52.30;;;;;;5053950;28;8787;-67
2021/09/18 05:20:24;;;;;;;;;11.33;11.33;22.30;52.30;;;;;;5054615;28;8816;-66
2021/09/18 05:22:50;;;;;;;;;13.00;13.00;22.20;52.50;;;;;;5056696;28;8778;-67
2021/09/18 05:25:16;;;;;;;;;13.33;13.33;22.20;52.30;;;;;;5056679;28;8763;-69
2021/09/18 05:27:42;;;;;;;;;13.00;13.00;22.30;52.20;;;;;;5057047;28;8755;-67
2021/09/18 05:30:09;;;;;;;;;13.67;13.67;22.30;52.10;;;;;;5056688;28;8791;-67
2021/09/18 05:32:35;;;;;;;;;16.00;16.00;22.30;52.30;;;;;;5053037;28;8919;-68
2021/09/18 05:35:01;;;;;;;;;11.67;11.67;22.20;52.20;;;;;;5055926;28;9373;-68
2021/09/18 05:37:27;;;;;;;;;12.67;12.67;22.20;52.20;;;;;;5056655;28;8774;-67
2021/09/18 05:39:52;;;;;;;;;13.00;13.00;22.20;52.50;;;;;;5056682;28;8759;-67
2021/09/18 05:42:18;;;;;;;;;13.67;13.67;22.20;52.30;;;;;;5054530;28;9397;-67
2021/09/18 05:44:44;;;;;;;;;15.00;15.00;22.40;52.20;;;;;;5056540;28;8786;-67
2021/09/18 05:47:10;;;;;;;;;14.33;14.33;22.30;52.00;;;;;;5056498;28;8762;-67
2021/09/18 05:49:36;;;;;;;;;13.00;13.00;22.40;52.10;;;;;;5056457;28;8755;-68
2021/09/18 05:52:02;;;;;;;;;15.00;15.00;22.50;52.00;;;;;;5054161;28;8807;-67
2021/09/18 05:54:27;;;;;;;;;15.67;15.67;22.50;51.90;;;;;;5047072;28;8800;-68
2021/09/18 05:56:54;;;;;;;;;18.00;18.00;22.50;51.90;;;;;;5051903;28;8795;-68
2021/09/18 05:59:20;;;;;;;;;16.67;16.67;22.50;51.80;;;;;;5033687;28;8769;-67
2021/09/18 06:01:46;;;;;;;;;17.67;17.67;22.40;52.10;;;;;;5041268;28;8828;-67
2021/09/18 06:04:12;;;;;;;;;16.00;16.00;22.40;53.10;;;;;;5035760;28;8834;-67
2021/09/18 06:06:37;;;;;;;;;17.33;17.33;22.40;52.30;;;;;;5036221;28;8792;-67
2021/09/18 06:09:03;;;;;;;;;21.00;21.00;22.40;52.20;;;;;;5042293;28;9441;-68
2021/09/18 06:11:29;;;;;;;;;16.67;16.67;22.50;51.70;;;;;;5056063;28;8864;-67
2021/09/18 06:13:55;;;;;;;;;15.33;15.33;22.50;51.80;;;;;;5055875;28;8778;-68
2021/09/18 06:16:24;;;;;;;;;15.67;15.67;22.40;51.70;;;;;;5055314;28;8840;-67
2021/09/18 06:18:51;;;;;;;;;19.00;19.00;22.30;52.10;;;;;;5035833;28;8774;-67
2021/09/18 06:21:18;;;;;;;;;15.67;15.67;22.30;51.90;;;;;;5047998;28;8787;-67
2021/09/18 06:23:45;;;;;;;;;17.00;17.00;22.20;52.50;;;;;;5054616;28;8905;-68
2021/09/18 06:26:11;;;;;;;;;19.00;19.00;22.10;52.00;;;;;;5055420;28;8767;-69
2021/09/18 06:28:37;;;;;;;;;19.33;19.33;22.30;52.60;;;;;;5055540;28;8763;-68
2021/09/18 06:31:03;;;;;;;;;16.00;16.00;22.20;51.80;;;;;;5055683;28;8801;-66
2021/09/18 06:33:29;;;;;;;;;13.67;13.67;22.10;52.20;;;;;;5055613;28;9519;-68
2021/09/18 06:35:56;;;;;;;;;12.33;12.33;22.10;52.10;;;;;;5055824;28;9445;-68
2021/09/18 06:38:22;;;;;;;;;14.33;14.00;22.10;52.40;;;;;;5055337;28;8787;-70
2021/09/18 06:40:52;;;;;;;;;12.00;12.00;22.10;51.60;;;;;;5055272;28;8877;-69
2021/09/18 06:43:19;;;;;;;;;15.33;15.33;22.00;52.00;;;;;;5055221;28;8885;-67
2021/09/18 06:45:45;;;;;;;;;13.33;13.33;22.00;51.80;;;;;;5055500;28;8755;-68
2021/09/18 06:48:11;;;;;;;;;12.33;12.33;22.00;51.40;;;;;;5055117;28;8873;-68
2021/09/18 06:50:38;;;;;;;;;11.33;11.33;22.00;52.00;;;;;;5053067;28;8901;-69
2021/09/18 06:53:05;;;;;;;;;14.33;14.33;22.00;51.30;;;;;;5055211;28;8861;-68
2021/09/18 06:55:32;;;;;;;;;14.00;14.00;21.90;51.40;;;;;;5055005;28;8789;-68
2021/09/18 06:57:58;;;;;;;;;12.67;12.67;22.10;51.50;;;;;;5049282;28;8901;-69
2021/09/18 07:00:24;;;;;;;;;11.67;11.67;22.10;50.60;;;;;;5053154;28;8924;-69
2021/09/18 07:02:49;;;;;;;;;12.33;12.33;22.20;50.90;;;;;;5040918;28;8797;-68
2021/09/18 07:05:15;;;;;;;;;11.67;11.67;22.20;50.90;;;;;;5054762;28;9451;-67
2021/09/18 07:07:41;;;;;;;;;16.33;16.33;22.20;51.00;;;;;;5039329;28;8845;-68
2021/09/18 07:10:08;;;;;;;;;12.33;12.33;22.20;51.10;;;;;;5036093;28;8796;-67
2021/09/18 07:12:33;;;;;;;;;15.67;15.67;22.30;50.90;;;;;;5035281;28;8814;-66
2021/09/18 07:14:59;;;;;;;;;12.67;12.67;22.50;50.80;;;;;;5038410;28;8959;-67
2021/09/18 07:17:25;;;;;;;;;14.67;14.67;22.70;50.10;;;;;;5041286;28;8787;-67
2021/09/18 07:19:51;;;;;;;;;14.33;14.33;22.90;49.50;;;;;;5042666;28;8810;-69
2021/09/18 07:22:16;;;;;;;;;13.00;13.00;22.90;49.20;;;;;;5042570;28;8799;-67
2021/09/18 07:24:42;;;;;;;;;15.33;15.33;23.10;48.80;;;;;;5050270;28;8785;-66
2021/09/18 07:27:08;;;;;;;;;11.00;11.00;23.10;48.10;;;;;;5034561;28;8888;-67
2021/09/18 07:29:34;;;;;;;;;12.33;12.33;23.20;47.60;;;;;;5039581;28;8817;-67
2021/09/18 07:32:00;;;;;;;;;12.00;12.00;22.90;47.50;;;;;;5054222;28;8845;-68
2021/09/18 07:34:26;;;;;;;;;14.67;14.67;23.00;47.90;;;;;;5048555;28;9203;-67
2021/09/18 07:36:51;;;;;;;;;14.00;14.00;22.80;48.10;;;;;;5040755;28;9431;-67
2021/09/18 07:39:18;;;;;;;;;12.67;12.67;23.00;47.80;;;;;;5040423;28;8770;-68
2021/09/18 07:41:44;;;;;;;;;13.00;13.00;23.20;47.90;;;;;;5047971;28;8815;-68
2021/09/18 07:44:10;;;;;;;;;12.33;12.33;23.40;47.20;;;;;;5054421;28;8797;-67
2021/09/18 07:46:36;;;;;;;;;14.00;14.00;23.50;46.80;;;;;;5048172;28;8779;-68
2021/09/18 07:49:03;;;;;;;;;17.33;17.33;23.70;46.80;;;;;;5037970;28;8798;-67
2021/09/18 07:51:29;;;;;;;;;12.33;12.33;23.70;46.10;;;;;;5041413;28;8841;-68
2021/09/18 07:53:55;;;;;;;;;13.67;13.67;23.80;46.00;;;;;;5037077;28;8785;-67
2021/09/18 07:56:20;;;;;;;;;13.00;13.00;24.00;45.60;;;;;;5034965;28;8770;-68
2021/09/18 07:58:46;;;;;;;;;12.00;12.00;24.00;44.80;;;;;;5032658;28;8758;-67
2021/09/18 08:01:12;;;;;;;;;12.33;12.33;24.00;45.20;;;;;;5032635;28;9484;-67
2021/09/18 08:03:38;;;;;;;;;11.00;11.00;24.20;45.00;;;;;;5033965;28;9494;-69
2021/09/18 08:06:05;;;;;;;;;13.00;13.00;24.00;43.90;;;;;;5034151;28;8872;-68
2021/09/18 08:08:30;;;;;;;;;11.33;11.33;23.80;44.00;;;;;;5034126;28;8851;-68
2021/09/18 08:10:56;;;;;;;;;11.00;11.00;23.80;44.80;;;;;;5034049;28;8766;-67
2021/09/18 08:13:22;;;;;;;;;11.00;11.00;23.90;44.50;;;;;;5034843;28;8832;-67
2021/09/18 08:15:48;;;;;;;;;12.00;12.00;23.80;44.40;;;;;;5037950;28;8790;-66
2021/09/18 08:18:14;;;;;;;;;11.00;11.00;23.90;44.10;;;;;;5038233;28;9474;-66
2021/09/18 08:20:39;;;;;;;;;10.00;10.00;24.10;44.70;;;;;;5048848;28;9452;-63
2021/09/18 08:23:05;;;;;;;;;11.00;10.67;24.10;43.20;;;;;;5056048;28;8798;-65
2021/09/18 08:25:32;;;;;;;;;14.67;14.67;24.00;43.90;;;;;;5046341;28;8808;-69
2021/09/18 08:27:58;;;;;;;;;13.00;13.00;24.10;44.30;;;;;;5038261;28;8773;-66
2021/09/18 08:30:24;;;;;;;;;11.67;11.67;24.20;44.00;;;;;;5037907;28;8909;-66
2021/09/18 08:32:50;;;;;;;;;11.00;11.00;24.20;43.50;;;;;;5037558;28;8797;-66
2021/09/18 08:35:15;;;;;;;;;10.33;10.33;24.20;42.90;;;;;;5049393;28;11477;-64
2021/09/18 08:37:42;;;;;;;;;11.00;11.00;24.50;42.30;;;;;;5041789;28;8773;-66
2021/09/18 08:40:08;;;;;;;;;12.67;12.67;24.50;41.70;;;;;;5037559;28;8766;-64
2021/09/18 08:42:38;;;;;;;;;13.00;13.00;24.50;41.80;;;;;;5037412;28;11468;-64
2021/09/18 08:45:06;;;;;;;;;12.00;12.00;24.80;42.60;;;;;;5037416;28;8761;-61
2021/09/18 08:47:33;;;;;;;;;10.00;10.00;25.00;41.30;;;;;;5037364;28;12162;-66
2021/09/18 08:50:00;;;;;;;;;10.00;10.00;25.10;41.40;;;;;;5049288;28;11484;-73
2021/09/18 08:52:26;;;;;;;;;8.33;8.33;25.30;41.20;;;;;;5057313;28;11496;-73
2021/09/18 08:54:52;;;;;;;;;12.00;12.00;25.40;40.30;;;;;;5045010;28;11499;-69
2021/09/18 08:57:18;;;;;;;;;10.00;10.00;25.50;40.30;;;;;;5050447;28;9425;-64
2021/09/18 08:59:44;;;;;;;;;9.67;9.67;25.30;39.40;;;;;;5048400;28;11483;-67
2021/09/18 09:02:15;;;;;;;;;10.67;10.67;25.20;40.00;;;;;;5053068;28;8881;-67
2021/09/18 09:04:43;;;;;;;;;10.33;10.33;25.40;39.90;;;;;;5055305;28;8835;-68
2021/09/18 09:07:12;;;;;;;;;10.33;10.33;25.30;39.90;;;;;;5041257;28;11465;-68
2021/09/18 09:10:07;;;;;;;;;10.00;10.00;25.50;40.20;;;;;;5045907;28;11613;-66
2021/09/18 09:12:35;;;;;;;;;9.00;9.00;25.70;40.00;;;;;;5043477;28;12211;-66
2021/09/18 09:15:05;;;;;;;;;10.33;10.33;25.80;39.90;;;;;;5049326;28;12176;-68
2021/09/18 09:17:51;;;;;;;;;;;;;;;;;;;;;
2021/09/18 09:20:35;;;;;;;;;9.33;9.33;26.00;38.50;;;;;;5054631;28;11522;-73
2021/09/18 09:23:20;;;;;;;;;7.00;7.00;25.60;38.00;;;;;;5056909;28;12211;-66
2021/09/18 09:25:58;;;;;;;;;8.00;8.00;25.60;38.10;;;;;;5045539;28;12172;-69
2021/09/18 09:29:07;;;;;;;;;9.00;9.00;25.50;37.50;;;;;;5042115;28;11525;-69
2021/09/18 09:31:42;;;;;;;;;8.00;8.00;25.40;38.20;;;;;;5036787;28;12247;-69
2021/09/18 09:34:55;;;;;;;;;6.67;6.67;25.40;38.50;;;;;;5035468;28;11471;-68
2021/09/18 09:37:30;;;;;;;;;8.00;8.00;25.50;37.30;;;;;;5054022;28;12120;-70
2021/09/18 09:39:58;;;;;;;;;8.00;8.00;25.60;37.30;;;;;;5053864;28;11474;-68
2021/09/18 09:42:29;;;;;;;;;8.33;8.33;25.80;37.50;;;;;;5037499;28;11469;-68
2021/09/18 09:45:08;;;;;;;;;9.00;9.00;26.00;37.40;;;;;;5061309;28;11534;-68
2021/09/18 09:47:34;;;;;;;;;5.00;5.00;26.30;37.70;;;;;;5052646;28;11496;-71
2021/09/18 09:50:03;;;;;;;;;10.00;10.00;26.40;37.20;;;;;;5069766;28;11475;-76
2021/09/18 09:52:32;;;;;;;;;10.33;10.33;26.50;36.60;;;;;;5057039;28;8942;-66
2021/09/18 09:55:08;;;;;;;;;8.00;8.00;26.70;36.00;;;;;;5053953;28;11595;-69
2021/09/18 09:57:34;;;;;;;;;7.67;7.67;26.80;36.20;;;;;;5054053;28;11542;-67
2021/09/18 10:00:10;;;;;;;;;8.75;8.75;26.90;35.40;;;;;;5053685;28;11585;-66
2021/09/18 10:02:37;;;;;;;;;9.00;9.00;27.20;35.30;;;;;;5053856;28;11449;-66
2021/09/18 10:05:08;;;;;;;;;10.00;10.00;27.40;34.70;;;;;;5056513;28;11611;-66
2021/09/18 10:07:35;;;;;;;;;10.00;10.00;27.10;33.90;;;;;;5073744;28;11481;-66
2021/09/18 10:10:17;;;;;;;;;10.33;10.33;26.90;34.80;;;;;;5073471;28;11487;-66
2021/09/18 10:12:50;;;;;;;;;7.50;7.50;26.90;34.60;;;;;;5072381;28;11626;-67
2021/09/18 10:15:16;;;;;;;;;8.25;8.25;27.10;33.40;;;;;;5055646;28;11531;-66
2021/09/18 10:17:53;;;;;;;;;7.25;7.25;27.30;32.60;;;;;;5053132;28;11426;-66
2021/09/18 10:23:14;;;;;;;;;11.00;11.00;27.50;32.10;;;;;;5015762;28;11474;-67
2021/09/18 10:23:22;;;;;;;;;8.00;8.00;27.50;32.50;;;;;;5020179;28;11636;-66
2021/09/18 10:25:57;;;;;;;;;9.00;9.00;27.40;31.60;;;;;;5015667;28;11503;-66
2021/09/18 10:28:47;;;;;;;;;6.50;6.50;27.80;31.30;;;;;;5014503;28;11632;-66
2021/09/18 10:31:23;;;;;;;;;8.00;8.00;28.30;30.60;;;;;;5020484;28;11561;-66
2021/09/18 10:33:56;;;;;;;;;7.00;7.00;28.30;30.00;;;;;;5035568;28;12098;-66
2021/09/18 10:36:42;;;;;;;;;8.50;8.50;28.20;29.80;;;;;;5034490;28;11454;-67
2021/09/18 10:39:16;;;;;;;;;9.25;9.25;28.10;30.80;;;;;;5035143;28;11524;-67
2021/09/18 10:41:46;;;;;;;;;7.00;7.00;28.00;30.50;;;;;;5041778;28;11554;-64
2021/09/18 10:44:14;;;;;;;;;6.00;6.00;28.20;30.00;;;;;;5055196;28;11445;-66
2021/09/18 10:46:47;;;;;;;;;6.00;6.00;28.80;30.00;;;;;;5053935;28;12095;-65
2021/09/18 10:49:32;;;;;;;;;6.50;6.50;29.50;29.70;;;;;;5055031;28;11431;-63
2021/09/18 10:52:25;;;;;;;;;7.00;7.00;29.60;29.20;;;;;;5046193;28;12135;-63
2021/09/18 10:55:04;;;;;;;;;7.00;7.00;29.10;28.70;;;;;;5052614;28;11419;-63
2021/09/18 10:57:38;;;;;;;;;8.00;8.00;29.00;29.40;;;;;;5054395;28;11437;-64
2021/09/18 11:00:38;;;;;;;;;7.00;7.00;29.80;29.40;;;;;;5048175;28;11473;-64
2021/09/18 11:03:04;;;;;;;;;9.00;9.00;30.10;27.90;;;;;;5027735;28;11450;-63
2021/09/18 11:05:38;;;;;;;;;7.00;7.00;30.10;27.50;;;;;;5054532;28;11505;-62
2021/09/18 11:08:19;;;;;;;;;10.00;10.00;30.30;27.80;;;;;;5035102;28;8776;-65
2021/09/18 11:10:44;;;;;;;;;6.75;6.75;30.50;27.70;;;;;;5017833;28;11551;-64
2021/09/18 11:13:11;;;;;;;;;8.00;8.00;30.80;27.20;;;;;;5054307;28;12072;-63
2021/09/18 11:15:52;;;;;;;;;7.00;7.00;30.80;26.30;;;;;;5054613;28;8791;-64
2021/09/18 11:18:39;;;;;;;;;6.00;6.00;30.90;26.40;;;;;;5054926;28;11633;-63
2021/09/18 11:21:10;;;;;;;;;5.50;5.50;30.80;25.60;;;;;;5043186;28;11450;-64
2021/09/18 11:23:37;;;;;;;;;7.00;7.00;30.60;26.20;;;;;;5051066;28;11492;-66
2021/09/18 11:26:41;;;;;;;;;5.25;5.25;30.90;26.40;;;;;;5042801;28;11435;-65
2021/09/18 11:29:12;;;;;;;;;4.50;4.50;31.00;26.00;;;;;;5040268;28;12058;-63
2021/09/18 11:31:39;;;;;;;;;6.00;6.00;31.20;25.90;;;;;;5034171;28;12186;-63
2021/09/18 11:34:05;;;;;;;;;5.00;5.00;31.40;25.40;;;;;;5053398;28;11488;-64
2021/09/18 11:36:45;;;;;;;;;7.00;7.00;31.70;25.60;;;;;;5054469;28;12362;-63
2021/09/18 11:39:11;;;;;;;;;5.00;5.00;32.20;25.40;;;;;;5054280;28;11521;-65
2021/09/18 11:41:37;;;;;;;;;4.50;4.50;32.50;23.50;;;;;;5045400;28;11498;-65
2021/09/18 11:44:11;;;;;;;;;5.00;5.00;32.90;23.60;;;;;;5053095;28;11443;-65
2021/09/18 11:46:38;;;;;;;;;15.50;15.50;33.50;23.70;;;;;;5054169;28;8804;-65
2021/09/18 11:49:08;;;;;;;;;6.75;6.75;33.60;22.90;;;;;;5053953;28;11499;-65
2021/09/18 11:51:34;;;;;;;;;4.75;4.75;33.80;23.10;;;;;;5045799;28;11665;-65
2021/09/18 11:54:08;;;;;;;;;4.75;4.75;33.90;22.40;;;;;;5052567;28;11538;-65
2021/09/18 11:56:34;;;;;;;;;6.00;6.00;34.00;22.30;;;;;;5054179;28;8798;-65
2021/09/18 11:59:10;;;;;;;;;4.50;4.50;34.90;21.70;;;;;;5054003;28;11453;-65
2021/09/18 12:01:36;;;;;;;;;4.00;4.00;38.50;18.50;;;;;;5045560;28;8818;-65
2021/09/18 12:04:02;;;;;;;;;1.25;1.25;42.20;16.40;;;;;;5053926;28;11493;-65
2021/09/18 12:06:29;;;;;;;;;3.00;3.00;44.70;14.80;;;;;;5054025;28;11493;-66
2021/09/18 12:08:55;;;;;;;;;3.00;3.00;45.60;14.40;;;;;;5053028;28;8810;-65
2021/09/18 12:11:21;;;;;;;;;3.00;3.00;47.30;13.20;;;;;;5038720;28;11472;-65
2021/09/18 12:13:52;;;;;;;;;3.00;3.00;49.00;12.50;;;;;;5035272;28;11471;-66
2021/09/18 12:16:20;;;;;;;;;3.25;3.25;50.20;12.70;;;;;;5053872;28;11458;-64
2021/09/18 12:18:49;;;;;;;;;3.00;3.00;50.20;12.00;;;;;;5047134;28;11479;-64
2021/09/18 12:21:21;;;;;;;;;3.50;3.50;48.60;11.50;;;;;;5047326;28;11467;-65
2021/09/18 12:23:58;;;;;;;;;4.00;4.00;45.00;13.20;;;;;;5039097;28;11593;-65
2021/09/18 12:26:29;;;;;;;;;0.50;0.50;44.10;14.10;;;;;;5051153;28;12241;-67
2021/09/18 12:29:12;;;;;;;;;2.75;2.75;46.20;13.30;;;;;;5054108;28;11530;-67
2021/09/18 12:31:41;;;;;;;;;2.25;2.25;48.40;12.10;;;;;;5045382;28;11450;-67
2021/09/18 12:34:12;;;;;;;;;2.00;2.00;45.80;12.50;;;;;;5054036;28;12173;-66
2021/09/18 12:36:38;;;;;;;;;3.75;3.75;42.40;14.20;;;;;;5053678;28;11434;-64
2021/09/18 12:39:06;;;;;;;;;3.75;3.75;39.60;15.80;;;;;;5053725;28;11459;-68
2021/09/18 12:41:34;;;;;;;;;3.25;3.25;37.80;17.20;;;;;;5039773;28;11454;-65
2021/09/18 12:44:11;;;;;;;;;3.25;3.25;36.50;18.60;;;;;;5042761;28;11436;-65
2021/09/18 12:46:44;;;;;;;;;4.25;4.25;35.50;18.90;;;;;;5039840;28;11445;-65
2021/09/18 12:49:10;;;;;;;;;3.00;3.00;34.70;19.70;;;;;;5032911;28;11447;-65
2021/09/18 12:51:39;;;;;;;;;4.25;4.25;33.90;20.40;;;;;;5046328;28;11467;-66
2021/09/18 12:54:13;;;;;;;;;4.75;4.75;33.30;20.60;;;;;;5033781;28;12300;-66
2021/09/18 12:56:39;;;;;;;;;3.75;3.75;32.80;21.30;;;;;;5038228;28;11456;-69